Time;durP1;ratioP1;P1;durP2;ratioP2;P2;SDS_P1;SDS_P2;PMS_P1;PMS_P2;Temp;Humidity;BMP_temperature;BMP_pressure;BME280_temperature;BME280_humidity;BME280_pressure;Samples;Min_cycle;Max_cycle;Signal;HPM_P1;HPM_P2
2021/05/06 00:02:00;;;;;;;5.20;3.00;;;;;;;8.15;37.32;100504.38;3524367;40;20381;-74
2021/05/06 00:04:54;;;;;;;;;;;;;;;7.93;37.95;100513.44;3538085;40;20050;-74
2021/05/06 00:08:00;;;;;;;5.30;2.87;;;;;;;8.09;37.02;100532.16;3535514;40;20260;-74
2021/05/06 00:30:25;;;;;;;4.95;3.10;;;;;;;8.12;37.62;100485.59;3536166;40;20397;-74
2021/05/06 00:32:55;;;;;;;4.90;3.53;;;;;;;8.09;37.67;100483.97;3529985;40;20127;-74
2021/05/06 00:35:25;;;;;;;5.40;3.50;;;;;;;8.11;37.97;100476.53;3520740;40;20048;-74
2021/05/06 00:37:59;;;;;;;4.88;3.35;;;;;;;8.11;37.56;100476.53;3521912;40;20079;-73
2021/05/06 00:40:34;;;;;;;5.78;3.95;;;;;;;8.12;37.45;100477.41;3518939;40;20055;-74
2021/05/06 00:43:21;;;;;;;4.72;3.60;;;;;;;8.11;37.53;100472.97;3519843;40;20055;-74
2021/05/06 00:54:25;;;;;;;6.35;4.40;;;;;;;8.03;37.81;100470.00;3528090;40;20082;-74
2021/05/06 00:57:02;;;;;;;6.22;4.30;;;;;;;8.00;37.63;100470.22;3529998;40;20063;-75
2021/05/06 01:05:13;;;;;;;5.50;4.10;;;;;;;7.94;37.89;100463.44;3531009;40;20127;-74
2021/05/06 01:08:01;;;;;;;6.65;4.03;;;;;;;7.91;37.85;100468.25;3528918;40;20118;-74
2021/05/06 01:10:41;;;;;;;7.22;4.10;;;;;;;7.91;38.05;100451.91;3537519;40;20062;-74
2021/05/06 01:13:11;;;;;;;5.57;3.95;;;;;;;7.89;37.82;100454.78;3519100;40;20329;-74
2021/05/06 01:15:39;;;;;;;5.47;4.70;;;;;;;7.89;38.13;100443.91;3529295;40;20070;-74
2021/05/06 01:18:07;;;;;;;6.07;4.35;;;;;;;7.91;38.23;100451.91;3527744;40;20047;-74
2021/05/06 01:20:35;;;;;;;7.78;4.40;;;;;;;7.88;38.24;100443.03;3537370;40;20425;-74
2021/05/06 01:23:03;;;;;;;5.47;4.55;;;;;;;7.90;38.19;100444.78;3538186;40;20280;-74
2021/05/06 01:25:30;;;;;;;4.85;4.05;;;;;;;7.86;38.27;100445.00;3530961;40;20051;-74
2021/05/06 01:28:01;;;;;;;6.28;4.00;;;;;;;7.87;38.31;100434.97;3528745;40;20059;-74
2021/05/06 01:30:36;;;;;;;5.10;4.10;;;;;;;7.86;38.26;100442.28;3534495;40;20051;-74
2021/05/06 01:33:09;;;;;;;6.63;4.13;;;;;;;7.87;38.61;100444.03;3520093;40;20051;-74
2021/05/06 01:35:40;;;;;;;;;;;;;;;7.63;39.08;100439.69;3531546;40;20058;-73
2021/05/06 01:38:24;;;;;;;5.95;3.83;;;;;;;7.80;38.29;100434.63;3538044;40;20293;-73
2021/05/06 01:43:43;;;;;;;6.03;4.60;;;;;;;7.82;38.34;100437.19;3525833;40;20425;-75
2021/05/06 01:46:30;;;;;;;6.00;4.35;;;;;;;7.84;38.17;100435.22;3530547;40;20405;-74
2021/05/06 01:57:41;;;;;;;5.50;4.38;;;;;;;7.80;38.53;100425.59;3539474;40;20584;-74
2021/05/06 02:00:22;;;;;;;4.90;3.30;;;;;;;7.76;38.46;100421.38;3529499;40;20058;-74
2021/05/06 02:02:58;;;;;;;6.18;3.50;;;;;;;7.76;38.44;100419.50;3518473;40;20039;-74
2021/05/06 02:05:32;;;;;;;7.00;4.05;;;;;;;7.77;38.38;100420.38;3532871;40;20047;-74
2021/05/06 02:07:59;;;;;;;5.95;3.67;;;;;;;7.77;38.57;100418.53;3539438;40;20199;-74
2021/05/06 02:10:33;;;;;;;4.82;3.50;;;;;;;7.76;38.66;100414.06;3530471;40;20522;-74
2021/05/06 02:13:04;;;;;;;5.65;3.45;;;;;;;7.77;38.81;100412.22;3522305;40;20059;-74
2021/05/06 02:15:36;;;;;;;4.80;3.47;;;;;;;7.77;38.75;100407.63;3535807;40;20051;-77
2021/05/06 02:18:05;;;;;;;5.45;3.75;;;;;;;7.77;38.66;100412.22;3525443;40;20067;-74
2021/05/06 02:20:33;;;;;;;5.10;3.58;;;;;;;7.78;38.88;100414.81;3527964;40;20055;-76
2021/05/06 02:23:04;;;;;;;5.45;3.67;;;;;;;7.77;38.82;100412.22;3528472;40;20055;-74
2021/05/06 02:25:32;;;;;;;4.88;3.30;;;;;;;7.78;38.65;100412.09;3532291;40;20387;-74
2021/05/06 02:28:02;;;;;;;5.47;3.20;;;;;;;7.77;38.64;100413.06;3520235;40;20055;-74
2021/05/06 02:30:30;;;;;;;5.80;3.40;;;;;;;7.77;38.66;100407.63;3528859;40;20050;-74
2021/05/06 02:33:17;;;;;;;5.43;3.05;;;;;;;7.76;38.53;100411.34;3528854;40;20091;-74
2021/05/06 02:35:45;;;;;;;5.75;4.03;;;;;;;7.78;38.63;100405.78;3536804;40;20054;-74
2021/05/06 02:38:12;;;;;;;5.90;3.28;;;;;;;7.78;38.54;100408.50;3528224;40;20066;-75
2021/05/06 02:40:40;;;;;;;5.03;2.90;;;;;;;7.78;38.66;100412.09;3528478;40;20039;-74
2021/05/06 02:43:07;;;;;;;6.28;3.50;;;;;;;7.78;38.51;100411.22;3529420;40;20039;-74
2021/05/06 02:45:43;;;;;;;5.07;3.17;;;;;;;7.77;38.42;100404.03;3532135;40;20046;-73
2021/05/06 02:48:13;;;;;;;6.28;3.47;;;;;;;7.77;38.54;100409.50;3524175;40;20054;-74
2021/05/06 02:50:45;;;;;;;5.40;3.17;;;;;;;7.75;38.66;100400.56;3527863;40;20047;-74
2021/05/06 02:53:16;;;;;;;6.43;3.58;;;;;;;7.73;38.60;100406.16;3529341;40;20083;-74
2021/05/06 02:55:53;;;;;;;7.10;3.80;;;;;;;7.75;38.29;100398.72;3530584;40;20062;-74
2021/05/06 02:58:35;;;;;;;6.97;3.88;;;;;;;7.74;38.66;100402.44;3528381;40;20063;-74
2021/05/06 03:03:50;;;;;;;5.60;3.33;;;;;;;7.72;38.61;100393.53;3528780;40;20066;-76
2021/05/06 03:06:21;;;;;;;5.20;3.10;;;;;;;7.73;38.67;100389.84;3534543;40;20308;-74
2021/05/06 03:08:53;;;;;;;4.93;3.15;;;;;;;7.74;38.62;100382.50;3528831;40;20133;-73
2021/05/06 03:11:35;;;;;;;5.05;2.88;;;;;;;7.75;38.67;100384.22;3529201;40;20091;-74
2021/05/06 03:22:44;;;;;;;3.90;2.22;;;;;;;7.66;38.52;100382.25;3519009;40;20063;-76
2021/05/06 03:25:14;;;;;;;3.88;2.10;;;;;;;7.64;39.22;100374.25;3523278;40;20510;-74
2021/05/06 03:27:49;;;;;;;4.47;1.73;;;;;;;7.65;38.71;100381.44;3529072;40;20059;-74
2021/05/06 03:30:39;;;;;;;3.38;1.55;;;;;;;7.63;38.86;100377.97;3526443;40;20059;-76
2021/05/06 03:36:12;;;;;;;2.95;1.38;;;;;;;7.55;39.17;100372.28;3527610;40;20055;-75
2021/05/06 03:44:26;;;;;;;3.97;1.40;;;;;;;7.56;39.23;100371.28;3523444;40;20043;-74
2021/05/06 03:47:14;;;;;;;2.55;1.35;;;;;;;7.54;39.29;100366.94;3526400;40;20051;-74
2021/05/06 04:17:59;;;;;;;2.20;1.20;;;;;;;7.59;39.59;100371.00;3526187;40;20063;-74
2021/05/06 04:26:07;;;;;;;4.70;1.52;;;;;;;7.59;39.49;100384.63;3536247;40;20083;-74
2021/05/06 04:37:04;;;;;;;2.83;1.50;;;;;;;7.58;39.71;100380.16;3530217;40;20059;-74
2021/05/06 04:53:45;;;;;;;5.55;1.60;;;;;;;7.63;39.73;100385.25;3528102;40;20070;-75
2021/05/06 05:04:30;;;;;;;3.60;1.70;;;;;;;7.64;39.79;100382.41;3534236;40;20428;-74
2021/05/06 05:07:07;;;;;;;2.57;1.40;;;;;;;7.65;39.79;100389.59;3526474;40;20055;-75
2021/05/06 05:09:55;;;;;;;4.03;1.83;;;;;;;7.65;39.79;100386.88;3529797;40;20323;-74
2021/05/06 05:12:40;;;;;;;4.18;2.08;;;;;;;7.67;39.77;100395.75;3526235;40;20059;-74
2021/05/06 05:18:00;;;;;;;4.97;2.33;;;;;;;7.68;39.83;100393.91;3528479;40;20054;-75
2021/05/06 05:20:38;;;;;;;3.88;2.10;;;;;;;7.71;39.85;100390.94;3535378;40;20054;-74
2021/05/06 05:23:28;;;;;;;4.10;1.75;;;;;;;7.73;39.91;100383.53;3531469;40;20062;-74
2021/05/06 05:26:01;;;;;;;3.55;1.90;;;;;;;7.71;40.06;100380.06;3529459;40;20039;-75
2021/05/06 05:28:30;;;;;;;3.65;2.08;;;;;;;7.74;39.79;100380.66;3536385;40;20059;-74
2021/05/06 05:30:57;;;;;;;5.03;2.72;;;;;;;7.78;40.19;100384.88;3527796;40;20473;-74
2021/05/06 05:33:26;;;;;;;4.03;2.67;;;;;;;7.80;40.01;100380.16;3534835;40;20055;-74
2021/05/06 05:36:06;;;;;;;4.53;2.75;;;;;;;7.84;40.13;100381.63;3520168;40;20050;-73
2021/05/06 05:38:42;;;;;;;6.28;2.83;;;;;;;7.88;40.19;100383.13;3531987;40;20054;-73
2021/05/06 05:41:32;;;;;;;5.35;3.22;;;;;;;7.94;39.89;100387.19;3526332;40;20264;-74
2021/05/06 05:44:26;;;;;;;5.03;3.00;;;;;;;8.00;40.13;100374.91;3520033;40;20058;-73
2021/05/06 05:56:57;;;;;;;6.07;3.45;;;;;;;8.30;39.84;100393.28;3533484;40;20062;-75
2021/05/06 05:59:25;;;;;;;5.47;3.13;;;;;;;8.38;39.99;100402.53;3526491;40;20185;-73
2021/05/06 06:01:52;;;;;;;6.40;3.28;;;;;;;8.45;39.50;100394.75;3526379;40;20326;-75
2021/05/06 06:04:20;;;;;;;6.30;3.35;;;;;;;8.49;39.81;100399.78;3529097;40;20511;-75
2021/05/06 06:06:47;;;;;;;4.53;2.50;;;;;;;8.54;39.55;100397.56;3529573;40;20051;-76
2021/05/06 06:09:15;;;;;;;4.25;2.75;;;;;;;8.60;39.68;100398.88;3531415;40;20082;-74
2021/05/06 06:11:43;;;;;;;5.20;3.00;;;;;;;8.61;39.50;100398.75;3529199;40;20051;-75
2021/05/06 06:14:10;;;;;;;6.28;2.80;;;;;;;8.65;39.38;100404.78;3530757;40;20099;-73
2021/05/06 06:16:40;;;;;;;4.53;2.70;;;;;;;8.68;39.30;100404.53;3529454;40;20063;-70
2021/05/06 06:19:08;;;;;;;4.40;2.42;;;;;;;8.70;39.32;100402.56;3527848;40;20059;-70
2021/05/06 06:21:42;;;;;;;4.40;2.83;;;;;;;8.73;39.22;100398.69;3533026;40;20051;-71
2021/05/06 06:24:10;;;;;;;4.40;2.65;;;;;;;8.73;39.25;100404.13;3530979;40;20054;-72
2021/05/06 06:26:39;;;;;;;4.60;2.65;;;;;;;8.74;39.24;100403.13;3532393;40;20061;-72
2021/05/06 06:29:08;;;;;;;4.57;2.70;;;;;;;8.74;39.23;100406.75;3530373;40;20130;-71
2021/05/06 06:31:40;;;;;;;4.57;2.80;;;;;;;8.72;39.17;100400.56;3524622;40;20059;-72
2021/05/06 06:34:08;;;;;;;6.18;2.90;;;;;;;8.72;39.25;100407.88;3534411;40;20066;-74
2021/05/06 06:36:36;;;;;;;4.72;2.65;;;;;;;8.70;39.05;100407.16;3528146;40;20084;-73
2021/05/06 06:39:04;;;;;;;5.13;2.53;;;;;;;8.67;39.27;100402.81;3526190;40;20137;-73
2021/05/06 06:41:32;;;;;;;4.95;2.67;;;;;;;8.65;39.13;100404.78;3523320;40;20139;-71
2021/05/06 06:44:01;;;;;;;7.13;3.47;;;;;;;8.64;39.29;100409.38;3537505;40;20054;-72
2021/05/06 06:46:29;;;;;;;5.78;3.15;;;;;;;8.63;39.05;100409.53;3525335;40;20083;-75
2021/05/06 06:48:58;;;;;;;5.93;3.10;;;;;;;8.59;39.24;100395.28;3526300;40;20070;-75
2021/05/06 06:51:29;;;;;;;4.68;2.78;;;;;;;8.60;39.35;100402.47;3534256;40;20035;-74
2021/05/06 06:53:56;;;;;;;5.88;3.38;;;;;;;8.59;39.44;100399.88;3528209;40;20054;-75
2021/05/06 06:56:23;;;;;;;5.60;3.17;;;;;;;8.59;39.24;100399.88;3531198;40;20091;-73
2021/05/06 06:58:52;;;;;;;6.50;3.92;;;;;;;8.59;39.38;100398.00;3528760;40;20062;-74
2021/05/06 07:01:21;;;;;;;6.00;3.22;;;;;;;8.62;39.55;100405.94;3533978;40;20055;-73
2021/05/06 07:03:48;;;;;;;6.30;3.50;;;;;;;8.61;39.24;100398.75;3528009;40;20039;-74
2021/05/06 07:06:16;;;;;;;5.30;3.17;;;;;;;8.63;39.13;100404.09;3533322;40;20043;-74
2021/05/06 07:08:46;;;;;;;6.05;3.05;;;;;;;8.63;39.51;100398.63;3526715;40;20324;-72
2021/05/06 07:11:13;;;;;;;4.82;3.30;;;;;;;8.66;39.57;100400.22;3532352;40;20409;-70
2021/05/06 07:13:41;;;;;;;6.38;3.55;;;;;;;8.68;39.54;100401.81;3526120;40;20062;-70
2021/05/06 07:16:09;;;;;;;5.93;3.50;;;;;;;8.71;39.53;100404.28;3527000;40;20059;-73
2021/05/06 07:18:37;;;;;;;6.38;3.13;;;;;;;8.76;39.44;100406.63;3525063;40;20397;-76
2021/05/06 07:21:07;;;;;;;6.57;3.40;;;;;;;8.78;39.47;100399.16;3517349;40;20405;-76
2021/05/06 07:23:35;;;;;;;5.15;3.22;;;;;;;8.81;39.54;100396.16;3528684;40;20063;-74
2021/05/06 07:26:06;;;;;;;5.57;3.40;;;;;;;8.84;39.73;100396.78;3532787;40;20047;-75
2021/05/06 07:28:38;;;;;;;5.53;3.08;;;;;;;8.94;39.78;100394.13;3528661;40;20059;-75
2021/05/06 07:31:10;;;;;;;;;;;;;;;8.76;40.13;100393.84;3532370;40;20542;-76
2021/05/06 07:33:43;;;;;;;5.82;3.10;;;;;;;9.08;39.92;100391.03;3525993;40;20590;-75
2021/05/06 07:36:14;;;;;;;4.72;2.85;;;;;;;9.20;39.75;100386.38;3531764;40;20055;-74
2021/05/06 07:38:45;;;;;;;4.90;3.17;;;;;;;9.31;39.51;100389.00;3528351;40;20086;-71
2021/05/06 07:41:17;;;;;;;5.28;2.88;;;;;;;9.39;39.12;100390.06;3528446;40;20055;-74
2021/05/06 07:43:48;;;;;;;5.33;3.10;;;;;;;9.43;39.11;100387.06;3526663;40;20400;-74
2021/05/06 07:46:20;;;;;;;4.35;2.92;;;;;;;9.50;38.92;100377.31;3527268;40;20055;-73
2021/05/06 07:48:56;;;;;;;4.22;2.90;;;;;;;9.54;38.48;100378.78;3526409;40;20055;-75
2021/05/06 07:51:28;;;;;;;4.53;2.97;;;;;;;9.56;38.74;100382.22;3528840;40;20035;-72
2021/05/06 07:54:05;;;;;;;4.80;3.10;;;;;;;9.56;38.66;100382.22;3531006;40;20422;-71
2021/05/06 07:56:38;;;;;;;4.25;3.28;;;;;;;9.60;38.60;100380.97;3527056;40;20323;-71
2021/05/06 07:59:05;;;;;;;4.68;3.00;;;;;;;9.62;38.66;100370.78;3530368;40;20055;-71
2021/05/06 08:01:33;;;;;;;5.53;2.97;;;;;;;9.67;38.82;100380.28;3531407;40;20054;-72
2021/05/06 08:04:02;;;;;;;4.40;3.10;;;;;;;9.73;38.67;100379.75;3529231;40;20074;-72
2021/05/06 08:06:31;;;;;;;4.88;2.97;;;;;;;9.75;38.87;100377.75;3533538;40;20075;-72
2021/05/06 08:08:59;;;;;;;4.38;2.65;;;;;;;9.80;38.50;100371.84;3530570;40;20094;-73
2021/05/06 08:11:27;;;;;;;4.50;2.72;;;;;;;9.87;38.55;100372.19;3533428;40;20055;-74
2021/05/06 08:13:54;;;;;;;4.43;2.70;;;;;;;9.92;38.59;100370.75;3533305;40;20067;-73
2021/05/06 08:16:21;;;;;;;3.60;2.47;;;;;;;9.98;38.48;100374.78;3529836;40;20051;-72
2021/05/06 08:18:49;;;;;;;3.75;2.70;;;;;;;10.06;38.31;100384.00;3526009;40;20081;-73
2021/05/06 08:21:17;;;;;;;4.15;2.70;;;;;;;10.13;38.29;100387.03;3529183;40;20317;-72
2021/05/06 08:23:45;;;;;;;6.15;2.97;;;;;;;10.22;38.38;100388.06;3531476;40;20050;-72
2021/05/06 08:26:13;;;;;;;4.25;2.78;;;;;;;10.32;38.11;100376.13;3532705;40;20067;-73
2021/05/06 08:28:50;;;;;;;3.22;2.45;;;;;;;10.39;37.70;100384.63;3529678;40;20047;-72
2021/05/06 08:31:18;;;;;;;3.47;2.42;;;;;;;10.47;37.31;100382.03;3528434;40;20047;-74
2021/05/06 08:33:45;;;;;;;4.20;2.67;;;;;;;10.52;37.24;100382.50;3532470;40;20091;-73
2021/05/06 08:36:12;;;;;;;3.95;2.55;;;;;;;10.56;37.23;100383.91;3531953;40;20054;-74
2021/05/06 08:38:41;;;;;;;3.60;2.28;;;;;;;10.63;37.35;100386.94;3527965;40;20409;-73
2021/05/06 08:41:08;;;;;;;4.40;2.20;;;;;;;10.66;37.32;100390.25;3530701;40;20059;-76
2021/05/06 08:43:38;;;;;;;4.03;2.38;;;;;;;10.73;37.18;100385.91;3532536;40;20042;-77
2021/05/06 08:46:05;;;;;;;4.03;1.98;;;;;;;10.78;37.07;100382.78;3529798;40;20345;-74
2021/05/06 08:48:53;;;;;;;3.17;2.17;;;;;;;10.85;37.02;100381.22;3528172;40;20059;-74
2021/05/06 08:51:22;;;;;;;3.38;2.17;;;;;;;10.91;36.96;100375.13;3529259;40;20039;-75
2021/05/06 08:53:51;;;;;;;3.38;2.15;;;;;;;10.97;36.69;100366.34;3530413;40;20149;-75
2021/05/06 08:56:18;;;;;;;4.05;2.03;;;;;;;11.01;36.50;100362.31;3527329;40;20055;-75
2021/05/06 08:58:46;;;;;;;4.50;2.30;;;;;;;11.06;36.56;100367.31;3537855;40;20059;-75
2021/05/06 09:01:14;;;;;;;2.95;1.92;;;;;;;11.10;36.37;100357.81;3532035;40;20047;-75
2021/05/06 09:03:42;;;;;;;3.03;1.98;;;;;;;11.14;36.49;100346.41;3532346;40;20073;-77
2021/05/06 09:06:15;;;;;;;3.58;1.73;;;;;;;11.21;36.13;100343.94;3535614;40;20129;-76
2021/05/06 09:08:44;;;;;;;2.72;1.90;;;;;;;11.28;35.88;100337.72;3534310;40;20037;-75
2021/05/06 09:11:15;;;;;;;3.40;2.10;;;;;;;11.36;36.04;100345.19;3532228;40;20404;-74
2021/05/06 09:13:43;;;;;;;2.30;1.50;;;;;;;11.42;36.09;100341.00;3528949;40;20053;-75
2021/05/06 09:16:10;;;;;;;2.95;1.73;;;;;;;11.48;35.69;100348.59;3530142;40;20058;-74
2021/05/06 09:18:42;;;;;;;3.42;1.95;;;;;;;11.58;34.88;100344.81;3526123;40;20058;-75
2021/05/06 09:21:27;;;;;;;2.95;1.60;;;;;;;11.63;35.67;100347.09;3525206;40;20067;-78
2021/05/06 09:24:10;;;;;;;4.47;1.80;;;;;;;11.73;35.03;100345.16;3530259;40;20118;-74
2021/05/06 09:26:40;;;;;;;3.47;1.70;;;;;;;11.81;35.09;100352.63;3529255;40;20134;-73
2021/05/06 09:29:10;;;;;;;2.40;1.60;;;;;;;11.87;35.03;100352.88;3526104;40;20396;-72
2021/05/06 09:31:39;;;;;;;3.10;1.80;;;;;;;11.93;34.87;100346.81;3530240;40;20111;-73
2021/05/06 09:34:09;;;;;;;3.05;1.70;;;;;;;12.00;34.77;100350.66;3525263;40;20054;-73
2021/05/06 09:36:37;;;;;;;2.67;1.65;;;;;;;12.05;34.18;100344.72;3529295;40;20491;-73
2021/05/06 09:39:09;;;;;;;2.53;1.23;;;;;;;12.12;34.16;100339.47;3532195;40;20050;-75
2021/05/06 09:41:38;;;;;;;3.58;1.55;;;;;;;12.17;34.32;100340.75;3529002;40;20130;-76
2021/05/06 09:44:11;;;;;;;2.47;1.42;;;;;;;12.24;33.18;100343.72;3530173;40;20043;-75
2021/05/06 09:46:57;;;;;;;2.88;1.40;;;;;;;12.23;33.98;100337.38;3527183;40;20085;-74
2021/05/06 09:49:26;;;;;;;2.17;1.50;;;;;;;12.28;33.89;100328.66;3533361;40;20054;-72
2021/05/06 09:52:00;;;;;;;3.55;1.65;;;;;;;12.34;32.93;100328.06;3535828;40;20071;-73
2021/05/06 09:54:29;;;;;;;2.20;1.50;;;;;;;12.35;33.38;100332.50;3524521;40;20054;-76
2021/05/06 09:56:59;;;;;;;2.42;1.40;;;;;;;12.37;33.20;100323.09;3530052;40;20063;-74
2021/05/06 09:59:27;;;;;;;3.15;1.50;;;;;;;12.40;32.96;100324.69;3538815;40;20066;-72
2021/05/06 10:02:07;;;;;;;3.15;1.33;;;;;;;12.44;31.98;100326.06;3528659;40;20133;-73
2021/05/06 10:04:36;;;;;;;3.15;1.40;;;;;;;12.45;33.11;100332.44;3530572;40;20059;-72
2021/05/06 10:07:16;;;;;;;2.67;1.40;;;;;;;12.51;31.77;100326.34;3530366;40;20061;-73
2021/05/06 10:09:55;;;;;;;2.33;1.23;;;;;;;12.54;32.12;100315.88;3525284;40;20083;-74
2021/05/06 10:12:26;;;;;;;2.60;1.50;;;;;;;12.57;32.54;100312.84;3526901;40;20126;-74
2021/05/06 10:14:55;;;;;;;2.42;1.35;;;;;;;12.61;32.74;100311.47;3531843;40;20583;-73
2021/05/06 10:17:25;;;;;;;2.55;1.55;;;;;;;12.69;32.46;100306.06;3529845;40;20094;-72
2021/05/06 10:19:55;;;;;;;1.77;1.20;;;;;;;12.75;32.30;100299.09;3529810;40;20035;-73
2021/05/06 10:22:24;;;;;;;3.08;1.50;;;;;;;12.81;32.19;100303.94;3532952;40;20373;-73
2021/05/06 10:24:57;;;;;;;2.22;1.20;;;;;;;12.88;32.32;100291.28;3527341;40;20070;-73
2021/05/06 10:27:26;;;;;;;3.00;1.30;;;;;;;12.98;32.02;100283.84;3524838;40;20089;-73
2021/05/06 10:29:56;;;;;;;2.30;1.40;;;;;;;13.07;32.07;100279.25;3532526;40;21221;-73
2021/05/06 10:32:27;;;;;;;2.35;1.20;;;;;;;13.14;30.99;100283.06;3524284;40;20073;-72
2021/05/06 10:34:57;;;;;;;1.67;1.00;;;;;;;13.22;31.19;100282.25;3535797;40;20047;-72
2021/05/06 10:37:27;;;;;;;1.85;0.90;;;;;;;13.26;30.54;100284.50;3535650;40;20543;-72
2021/05/06 10:39:55;;;;;;;2.15;1.08;;;;;;;13.28;30.77;100278.84;3532619;40;20079;-73
2021/05/06 10:42:35;;;;;;;1.95;1.25;;;;;;;13.34;29.90;100281.78;3530193;40;20058;-72
2021/05/06 10:45:31;;;;;;;3.40;1.30;;;;;;;13.32;30.12;100280.25;3533352;40;20047;-72
2021/05/06 10:47:59;;;;;;;1.83;1.13;;;;;;;13.30;30.73;100272.16;3535563;40;20047;-72
2021/05/06 10:50:35;;;;;;;2.05;1.00;;;;;;;13.35;29.52;100274.41;3528138;40;20053;-72
2021/05/06 10:53:04;;;;;;;2.25;1.10;;;;;;;13.34;30.37;100278.19;3526598;40;20062;-72
2021/05/06 10:55:54;;;;;;;1.88;1.10;;;;;;;13.32;29.44;100270.13;3528054;40;20043;-74
2021/05/06 10:58:39;;;;;;;1.42;0.90;;;;;;;13.34;29.46;100259.81;3540532;40;20111;-73
2021/05/06 11:01:21;;;;;;;1.85;0.90;;;;;;;13.36;29.32;100251.41;3526002;40;20117;-73
2021/05/06 11:04:10;;;;;;;2.47;0.85;;;;;;;13.34;29.44;100254.31;3527014;40;20141;-75
2021/05/06 11:06:44;;;;;;;2.03;1.10;;;;;;;13.38;29.12;100255.72;3529579;40;20149;-77
2021/05/06 11:09:50;;;;;;;1.42;1.00;;;;;;;13.36;28.99;100252.28;3527359;40;20062;-74
2021/05/06 11:12:32;;;;;;;2.53;1.20;;;;;;;13.40;29.03;100252.81;3522838;40;20051;-74
2021/05/06 11:15:34;;;;;;;2.10;1.20;;;;;;;13.36;29.12;100251.41;3526858;40;20055;-74
2021/05/06 11:18:05;;;;;;;2.40;1.30;;;;;;;13.39;29.63;100256.59;3526286;40;20053;-75
2021/05/06 11:20:52;;;;;;;2.25;1.10;;;;;;;13.43;29.10;100241.47;3527037;40;20054;-75
2021/05/06 11:23:41;;;;;;;1.80;1.25;;;;;;;13.42;28.97;100234.25;3526935;40;21169;-73
2021/05/06 11:26:14;;;;;;;2.83;1.48;;;;;;;13.46;29.42;100228.28;3527303;40;20074;-76
2021/05/06 11:28:49;;;;;;;1.90;1.13;;;;;;;13.48;28.92;100230.88;3528318;40;20092;-75
2021/05/06 11:31:51;;;;;;;1.88;1.05;;;;;;;13.49;29.49;100224.34;3529061;40;20141;-76
2021/05/06 11:34:42;;;;;;;2.17;1.27;;;;;;;13.47;29.96;100223.66;3528062;40;20358;-77
2021/05/06 11:37:15;;;;;;;2.67;1.40;;;;;;;13.51;29.66;100216.78;3524877;40;20403;-73
2021/05/06 11:39:51;;;;;;;3.28;1.30;;;;;;;13.54;29.72;100213.69;3526811;40;20051;-73
2021/05/06 11:42:19;;;;;;;3.20;1.40;;;;;;;13.51;30.21;100220.38;3529016;40;20066;-73
2021/05/06 11:45:17;;;;;;;2.40;1.33;;;;;;;13.50;29.96;100204.91;3530447;40;20054;-73
2021/05/06 11:47:47;;;;;;;2.35;1.20;;;;;;;13.52;30.31;100202.00;3523790;40;20051;-75
2021/05/06 11:50:16;;;;;;;1.70;1.05;;;;;;;13.53;30.28;100206.47;3528785;40;20388;-73
2021/05/06 11:52:44;;;;;;;2.97;1.20;;;;;;;13.53;30.11;100201.84;3536374;40;20047;-74
2021/05/06 11:55:26;;;;;;;1.60;1.10;;;;;;;13.58;29.92;100184.00;3517457;40;20051;-73
2021/05/06 11:57:53;;;;;;;2.78;1.25;;;;;;;13.58;30.35;100182.13;3530475;40;20092;-72
2021/05/06 12:00:25;;;;;;;1.90;1.10;;;;;;;13.66;29.98;100179.41;3530258;40;20058;-71
2021/05/06 12:02:58;;;;;;;2.40;1.30;;;;;;;13.72;28.98;100178.72;3529841;40;20038;-73
2021/05/06 12:05:59;;;;;;;1.92;1.27;;;;;;;13.77;29.31;100157.06;3531520;40;20051;-73
2021/05/06 12:08:30;;;;;;;2.47;1.40;;;;;;;13.82;29.73;100167.56;3525795;40;20062;-73
2021/05/06 12:11:00;;;;;;;2.22;1.40;;;;;;;13.89;29.78;100166.75;3530860;40;20054;-73
2021/05/06 12:13:30;;;;;;;2.10;1.38;;;;;;;13.98;29.13;100159.34;3528667;40;20038;-73
2021/05/06 12:16:17;;;;;;;1.80;1.20;;;;;;;14.04;28.69;100153.16;3529066;40;20086;-74
2021/05/06 12:19:03;;;;;;;1.90;1.15;;;;;;;14.13;28.16;100148.53;3527856;40;20138;-73
2021/05/06 12:21:40;;;;;;;2.17;1.20;;;;;;;14.19;27.39;100147.81;3531559;40;20058;-74
2021/05/06 12:24:10;;;;;;;2.28;1.10;;;;;;;14.22;28.51;100147.47;3526601;40;20042;-74
2021/05/06 12:26:38;;;;;;;2.33;1.10;;;;;;;14.27;28.44;100139.56;3522411;40;20063;-73
2021/05/06 12:29:05;;;;;;;3.08;1.58;;;;;;;14.30;28.03;100141.97;3525000;40;20436;-75
2021/05/06 12:31:46;;;;;;;2.20;1.30;;;;;;;14.37;27.02;100139.38;3530920;40;20079;-75
2021/05/06 12:34:20;;;;;;;2.17;1.17;;;;;;;14.40;26.73;100139.03;3521350;40;20079;-75
2021/05/06 12:40:29;;;;;;;2.25;1.23;;;;;;;14.33;27.46;100136.09;3526357;40;20047;-73
2021/05/06 12:42:57;;;;;;;2.22;1.15;;;;;;;14.33;27.53;100127.84;3533052;40;20054;-73
2021/05/06 12:45:42;;;;;;;2.67;1.00;;;;;;;14.34;26.47;100121.31;3530733;40;20373;-74
2021/05/06 12:49:07;;;;;;;1.95;1.08;;;;;;;14.27;27.79;100121.16;3524337;40;20090;-74
2021/05/06 12:51:36;;;;;;;2.47;1.05;;;;;;;14.30;27.12;100122.72;3535211;40;20085;-74
2021/05/06 12:54:10;;;;;;;3.75;1.30;;;;;;;14.29;27.05;100113.59;3525392;40;20065;-74
2021/05/06 12:56:41;;;;;;;1.77;1.00;;;;;;;14.30;27.28;100109.81;3527990;40;20401;-74
2021/05/06 12:59:35;;;;;;;1.38;1.00;;;;;;;14.28;26.42;100108.25;3526535;40;20075;-75
2021/05/06 13:02:11;;;;;;;2.08;1.15;;;;;;;14.35;26.26;100108.41;3510758;40;20122;-72
2021/05/06 13:04:43;;;;;;;2.25;1.25;;;;;;;14.35;26.34;100101.03;3526591;40;20070;-73
2021/05/06 13:07:12;;;;;;;2.17;1.38;;;;;;;14.35;26.88;100092.78;3529595;40;20051;-73
2021/05/06 13:09:44;;;;;;;2.53;1.30;;;;;;;14.40;26.57;100084.88;3535482;40;20054;-75
2021/05/06 13:12:16;;;;;;;2.15;1.00;;;;;;;14.40;27.07;100086.75;3534589;40;20393;-73
2021/05/06 13:14:47;;;;;;;2.55;1.50;;;;;;;14.45;26.72;100076.94;3529869;40;20129;-73
2021/05/06 13:17:28;;;;;;;3.75;1.45;;;;;;;14.50;25.80;100069.00;3525576;40;20059;-72
2021/05/06 13:19:57;;;;;;;3.00;1.30;;;;;;;14.48;26.49;100071.09;3530551;40;20063;-73
2021/05/06 13:22:26;;;;;;;2.10;1.20;;;;;;;14.52;26.72;100071.56;3529783;40;20403;-73
2021/05/06 13:24:54;;;;;;;1.50;1.00;;;;;;;14.54;26.83;100077.75;3532339;40;20062;-74
2021/05/06 13:27:23;;;;;;;1.88;1.20;;;;;;;14.55;26.22;100069.34;3529120;40;20051;-74
2021/05/06 13:29:58;;;;;;;3.05;1.40;;;;;;;14.60;25.56;100068.78;3528980;40;20049;-74
2021/05/06 13:32:34;;;;;;;1.45;1.02;;;;;;;14.59;24.95;100053.31;3532761;40;20062;-76
2021/05/06 13:35:05;;;;;;;2.20;1.17;;;;;;;14.56;26.06;100054.53;3527203;40;20067;-77
2021/05/06 13:37:35;;;;;;;1.58;1.10;;;;;;;14.60;25.76;100047.63;3527064;40;20401;-76
2021/05/06 13:40:04;;;;;;;2.35;1.25;;;;;;;14.60;26.01;100049.53;3524396;40;20055;-75
2021/05/06 13:42:33;;;;;;;2.90;1.50;;;;;;;14.60;26.15;100046.78;3536548;40;20046;-73
2021/05/06 13:45:01;;;;;;;2.13;1.27;;;;;;;14.62;25.67;100048.31;3522990;40;20390;-74
2021/05/06 13:47:29;;;;;;;2.92;1.17;;;;;;;14.63;25.80;100046.41;3528043;40;20051;-74
2021/05/06 13:49:56;;;;;;;2.80;1.40;;;;;;;14.64;25.93;100042.63;3532805;40;20516;-76
2021/05/06 13:52:26;;;;;;;3.65;1.20;;;;;;;14.65;25.49;100042.44;3531685;40;20404;-75
2021/05/06 13:54:54;;;;;;;2.17;1.38;;;;;;;14.68;25.46;100047.59;3527127;40;20047;-76
2021/05/06 13:57:22;;;;;;;2.60;1.27;;;;;;;14.69;25.95;100037.44;3535143;40;20305;-76
2021/05/06 13:59:49;;;;;;;3.00;1.50;;;;;;;14.71;25.76;100031.75;3531426;40;20133;-74
2021/05/06 14:02:18;;;;;;;3.65;1.50;;;;;;;14.74;25.53;100031.38;3527459;40;20071;-74
2021/05/06 14:04:48;;;;;;;2.33;1.20;;;;;;;14.75;26.04;100030.34;3523744;40;20055;-75
2021/05/06 14:07:16;;;;;;;2.30;1.20;;;;;;;14.77;25.74;100031.94;3530356;40;20059;-75
2021/05/06 14:09:43;;;;;;;1.70;1.20;;;;;;;14.79;25.71;100029.88;3528637;40;20051;-76
2021/05/06 14:12:12;;;;;;;1.67;1.02;;;;;;;14.83;25.66;100031.19;3530928;40;20047;-74
2021/05/06 14:14:40;;;;;;;2.80;1.20;;;;;;;14.81;25.26;100022.28;3528025;40;20083;-72
2021/05/06 14:17:07;;;;;;;1.85;1.00;;;;;;;14.81;25.33;100016.78;3533936;40;20345;-73
2021/05/06 14:19:36;;;;;;;1.88;1.00;;;;;;;14.83;25.30;100027.59;3531026;40;20414;-74
2021/05/06 14:22:03;;;;;;;2.67;1.42;;;;;;;14.83;25.29;100024.84;3531577;40;20031;-74
2021/05/06 14:24:31;;;;;;;3.08;1.35;;;;;;;14.83;25.37;100035.84;3528811;40;20051;-73